Terminal Aerodrome Forecast
Issued by NWS Topeka, KS

Home | Current Version | Previous Version | Text Only | Print | Product List | Glossary Off
Versions: 1 2 3 4 5 6 7 8 9 10 11 12 13 14 15 16 17 18 19 20 21 22

000
FTUS43 KTOP 221720
TAFTOP
TAF
KTOP 221720Z 2218/2318 12011KT P6SM BKN070
     FM230500 14011KT P6SM -DZ OVC035
     FM230700 13011G20KT P6SM -DZ OVC025
     FM230800 13012G20KT P6SM -DZ OVC014
     FM231300 14012G23KT P6SM OVC012
     FM231700 17017G26KT P6SM BKN020=

USA.gov is the U.S. government's official web portal to all federal, state and local government web resources and services.